ACT        NSW        VIC        QLD        SA        WA        TAS        NT        INFO        CALC            by VK5ZD

  Atmospheric Gas Attenuation - ITU Rec 676-11   --------------- db/100km ---------------
Station Date Time Temp RH % AH g/m3 Dew Point Wind Direction Speed kph Gust kph Barometer mB Rainfall Since 9am 24GHz 47GHz 76GHz 122GHz 134GHz 241GHz
Albion Park 17 02:10 12.1 77 8.26 8.2 24 28 1018.9 0 18.9 26.0 39.5 103.6 96.5 331.5
Albury 17 02:10 1.6 100 5.41 1.6 4 6 1022.2 0 13.2 24.4 32.7 85.2 69.2 234.2
Armidale Airport 17 02:10 3.9 92 5.82 2.7 19 20 1016.1 0.2 14.0 24.2 33.2 86.6 72.3 245.6
Badgerys Creek 17 02:10 8.6 75 6.45 4.4 13 13 1013.1 0.2 15.2 23.9 33.6 87.9 76.0 259.2
Ballina 17 02:10 9.8 71 6.59 4.8 11 13 1013.5 0 15.5 23.8 33.7 88.1 76.6 261.7
Bankstown 17 02:10 11.4 66 6.78 5.3 11 11 1018.5 0 15.8 23.9 33.9 88.7 77.8 266.1
Bathurst 16 15:00 10.1 64 6.05 3.7 4 1013.1 0 14.3 22.9 31.5 82.1 69.5 236.6
Bathurst Airport 17 02:10 1.5 100 5.38 1.5 0 0 1019.5 0 13.2 24.3 32.5 84.7 68.7 232.5
Bega 17 02:10 10.7 75 7.37 6.5 17 20 1021.5 0 17.1 25.1 36.7 96.0 86.5 296.2
Bellambi 17 02:10 12.6 69 7.63 7.1 26 28 1013.1 0 17.6 24.7 36.5 95.7 87.1 298.9
Bombala Aws 17 02:10 4.6 99 6.56 4.4 9 11 1013.1 1.6 15.6 25.2 35.8 93.7 81.5 278.1
Borrona Downs 17 02:10 4.4 75 4.9 0.3 1013.1 0 12.0 22.5 29.2 75.9 59.5 200.8
Bourke 17 02:10 5.9 75 5.41 1.8 9 11 1021 0 13.1 23.2 30.9 80.5 65.4 221.5
Brewon 17 02:10 3.7 94 5.86 2.9 1013.1 0 14.1 24.2 33.3 87.0 72.8 247.5
Broken Hill Airport 17 02:09 9.2 53 4.73 0.1 7 7 1022.5 0 11.5 21.4 27.2 70.6 54.4 183.4
Camden 17 02:10 9.8 69 6.4 4.4 13 15 1018.8 0 15.1 23.7 33.2 86.6 74.5 254.3
Campbelltown 17 02:10 7.2 82 6.44 4.3 4 6 1013.1 0 15.2 24.2 34.2 89.4 77.2 263.4
Canterbury 17 02:10 11.2 65 6.59 4.9 11 13 1013.1 0 15.4 23.4 33.1 86.5 75.3 257.1
Cape Byron 17 02:10 12.3 56 6.08 3.8 32 35 1013.7 0 14.3 22.4 30.7 80.2 68.0 231.6
Casino 17 02:10 6.1 87 6.36 4.1 9 11 1014.3 0 15.1 24.5 34.4 89.9 77.3 263.6
Cessnock Airport 17 02:10 12.4 60 6.56 4.9 7 9 1017 0 15.3 23.2 32.6 85.2 74.0 252.8
Cobar 17 02:10 4.5 90 5.92 3 7 9 1021.3 0 14.2 24.4 33.5 87.5 73.4 249.5
Cobar Airport 17 02:10 -0.2 95 4.55 -0.9 0 0 1021.5 0 11.4 23.4 29.8 77.4 58.8 197.6
Coffs Harbour Airport 17 02:10 12.5 63 6.93 5.7 13 17 1013.5 0 16.1 23.6 33.9 88.6 78.3 268.0
Condobolin Airport 17 02:10 -0.1 98 4.72 -0.4 0 0 1021.5 0 11.8 23.7 30.4 79.2 61.0 205.5
Cooma 16 15:00 8.1 78 6.49 4.6 4 1013.1 0 15.3 24.1 34.0 88.9 77.0 262.7
Coonabarabran Airport 17 02:10 4.1 92 5.89 2.9 15 17 1018.5 0 14.2 24.4 33.5 87.4 73.2 248.8
Coonamble 17 02:10 3.9 99 6.26 3.8 17 19 1019.5 0 15.0 25.1 35.1 91.8 78.5 267.5
Cowra 17 02:00 1.2 100 5.27 1.2 0 0 1021.4 0 13.0 24.3 32.2 84.0 67.5 228.4
Delta 17 02:10 0.9 78 4.03 -2.5 1013.1 0 10.3 22.0 27.0 70.1 50.7 169.3
Deniliquin 16 18:00 5.9 100 7.22 5.9 9 11 1022.7 0 17.0 26.3 38.4 100.5 90.0 307.9
Dubbo 17 02:10 1.7 97 5.29 1.3 9 9 1020 0 13.0 24.1 32.0 83.5 67.3 227.6
Evans Head 17 02:10 12.2 55 5.94 3.4 13 15 1013.3 0 14.0 22.2 30.2 78.9 66.3 225.8
Forbes 17 02:10 0.5 99 4.97 0.4 2 4 1020.9 0 12.3 23.9 31.2 81.3 64.0 215.8
Fowlers Gap 17 02:10 4.9 60 4.05 -2.2 2 6 1022.5 0 10.2 21.4 26.1 67.6 48.8 163.3
Girilambone 17 02:10 5.1 89 6.09 3.4 1013.1 0 14.6 24.2 33.6 87.9 74.6 253.9
Glen Innes Airport 17 02:10 -2.8 99 3.95 -2.9 0 0 1016 0 10.2 22.9 28.0 72.8 52.2 174.1
Gosford 17 02:10 12.8 69 7.73 7.4 15 19 1013.1 0 17.8 24.8 36.8 96.5 88.2 302.7
Grafton Agrs 17 02:10 11.2 64 6.49 4.7 13 15 1013.1 0 15.2 23.3 32.7 85.5 74.0 252.7
Grafton Airport 17 02:00 6.6 76 5.74 2.7 6 9 1013.9 0 13.8 23.3 31.7 82.6 68.6 233.2
Green Cape 17 02:10 11.1 88 8.87 9.2 32 41 1013.1 1.2 20.3 27.1 42.3 111.1 105.6 363.4
Griffith 17 02:10 1.8 97 5.32 1.4 0 0 1021.9 0 13.0 24.2 32.2 83.9 67.7 229.2
Gunnedah Airport 17 02:10 1.7 89 4.85 0.1 0 0 1018.2 0 12.0 23.3 30.2 78.5 61.2 206.3
Hay Airport 17 02:10 -0.9 99 4.51 -1 6 7 1022.3 0 11.4 23.6 29.9 77.8 58.8 197.5
High Range (Wanganderry) 17 02:10 4.7 89 5.93 3 22 24 1013.1 0 14.2 24.1 33.2 86.6 72.8 247.6
Holsworthy 17 02:10 9.6 74 6.78 5.2 9 11 1018.5 0 15.9 24.3 34.7 90.8 79.7 272.2
Holsworthy (Defence) 17 02:10 7.7 82 6.65 4.8 6 7 1013.1 0 15.7 24.4 34.8 91.0 79.5 271.5
Horsley Park 17 02:10 10.4 64 6.17 3.9 9 15 1013.1 0 14.5 23.0 31.8 83.0 70.7 241.0
Inverell 16 15:00 14.2 39 4.76 0.5 6 1013.1 0 11.4 20.0 25.4 65.9 51.0 172.2
Inverell Rs 17 02:10 5.1 84 5.75 2.6 11 13 1016.6 0 13.8 23.8 32.4 84.6 70.3 238.7
Ivanhoe Airport 17 02:10 2.3 95 5.39 1.6 7 7 1022.1 0 13.2 24.2 32.3 84.2 68.2 231.1
Kapooka (Defence) 17 02:10 -0.4 99 4.67 -0.6 0 0 1013.1 0.2 11.7 23.4 30.0 78.2 60.1 202.3
Kempsey Airport 17 02:10 12.6 69 7.63 7.1 17 19 1014.2 0 17.6 24.7 36.6 95.8 87.2 299.2
Khancoban 17 02:10 0.6 100 5.06 0.6 0 0 1022 0 12.5 24.1 31.6 82.3 65.2 220.1
Kiama 17 02:10 12.6 74 8.19 8.1 39 44 1013.1 0.2 18.8 25.6 38.7 101.6 94.5 324.5
Lake Macquarie - Cooranbong 17 02:10 12.9 66 7.44 6.7 7 15 1013.1 0 17.2 24.3 35.6 93.3 84.4 289.2
Lismore Airport 17 02:10 5.4 92 6.42 4.2 7 9 1014 0 15.3 24.7 34.9 91.3 78.8 268.8
Lord Howe Island 17 02:10 17.6 87 13.05 15.4 30 43 1001.4 0.8 28.9 31.7 55.7 147.0 152.6 528.5
Lucas Heights (Ansto) 17 02:00 9.3 76 6.83 5.3 22 22 1018.5 0 16.0 24.5 35.0 91.6 80.6 275.6
Maitland Airport 17 02:10 12.7 65 7.24 6.3 11 13 1017.4 0 16.7 24.2 35.1 91.9 82.3 282.0
Mangrove Mountain 17 02:10 10 64 6.02 3.5 7 9 1013.1 0 14.2 22.8 31.4 81.9 69.2 235.6
Marrangaroo (Defence) 17 02:10 -2.8 95 3.79 -3.5 0 0 1013.1 0 9.9 22.5 27.3 70.8 49.9 166.0
Merimbula 17 02:10 9.1 90 7.99 7.5 9 11 1021.5 0.2 18.5 26.6 40.0 104.9 96.8 332.0
Merriwa 17 02:10 3 95 5.65 2.3 9 11 1018.7 0 13.7 24.3 32.9 86.0 71.0 240.8
Moree 17 02:10 2.3 92 5.22 1.1 0 4 1018 0 12.8 23.7 31.4 81.9 65.7 222.2
Moruya Heads 16 15:00 16.6 63 8.9 9.5 30 1017.7 0 20.1 25.7 39.8 104.4 99.1 341.4
Moss Vale 17 02:10 5.9 87 6.28 3.9 24 30 1018.8 0 15.0 24.5 34.3 89.7 76.8 261.5
Mount Boyce 17 02:10 3.4 85 5.2 1.1 15 20 1013.1 0.2 12.7 23.2 30.7 80.1 64.2 217.2
Mount Seaview 16 15:00 16.6 67 9.46 10.6 9 1013.1 0 21.3 26.5 41.8 109.8 106.0 365.5
Mudgee 17 02:10 0.9 97 5.01 0.5 0 0 1018.9 0 12.4 23.8 31.2 81.2 64.1 216.2
Mulurulu 17 02:10 0.9 94 4.85 0 1013.1 0 12.0 23.3 30.3 78.9 61.5 207.5
Murrurundi Gap 17 02:10 7.7 75 6.08 3.6 32 39 1016.9 0 14.5 23.7 32.7 85.3 72.3 246.0
Narrabri 17 02:10 1.6 88 4.76 -0.2 0 0 1018.5 0 11.8 23.2 29.8 77.7 60.1 202.4
Narrandera Airport 17 02:10 -0.1 99 4.77 -0.2 0 0 1022.2 0 11.9 23.8 30.7 79.8 61.8 208.0
Nerriga 17 02:10 4.1 88 5.64 2.3 11 13 1013.1 0 13.6 23.8 32.2 84.1 69.5 235.8
Newcastle Nobbys 17 02:10 13.2 74 8.5 8.8 19 24 1013.1 0 19.4 25.9 39.7 104.2 97.8 336.4
Noona 17 02:10 5.5 81 5.69 2.6 1013.1 0 13.7 23.5 31.9 83.2 68.9 234.0
Norah Head 17 02:10 12.6 76 8.41 8.6 20 26 1013.1 7 19.2 25.9 39.6 104.0 97.4 334.8
Norfolk Island 17 02:00 17.8 82 12.44 14.7 22 41 1003.8 0.6 27.6 30.7 53.0 139.8 143.8 497.7
Nullo Mountain 17 02:10 3.1 82 4.91 0.3 13 19 1013.1 0 12.1 22.8 29.7 77.3 60.6 204.6
Orange Airport 17 02:10 0.2 97 4.77 -0.2 13 15 1019.5 0.2 11.9 23.6 30.5 79.3 61.4 206.7
Parkes Airport 17 02:10 0.2 99 4.87 0.1 7 7 1020.6 0 12.1 23.8 30.9 80.5 62.8 211.7
Penrith 17 02:10 10.9 66 6.57 4.8 7 9 1013.1 0 15.4 23.5 33.1 86.6 75.3 257.2
Point Perpendicular 17 02:10 12.9 82 9.24 9.9 35 46 1017.6 2.2 21.0 27.4 43.1 113.2 108.6 374.0
Port Macquarie Airport 17 02:10 13.8 68 8.1 8 30 33 1014.2 0 18.5 25.1 37.9 99.2 91.9 315.8
Portable Npws Nsw02 17 02:00 4.5 72 4.74 -0.1 19 19 1013.1 0 11.7 22.2 28.5 74.2 57.4 193.3
Portable Rfsnsw02 17 02:00 -0.6 99 4.61 -0.7 4 4 1013.1 0 11.6 23.3 29.8 77.7 59.5 200.0
Portable Rfsnsw09 17 02:00 6 80 5.81 2.9 6 9 1013.1 0 13.9 23.5 32.1 83.9 70.0 238.0
Portable Rfsnsw10 17 02:00 10.7 60 5.89 3.2 7 9 1013.1 0 13.9 22.5 30.6 79.9 66.9 227.8
Portable Rfsnsw14 16 16:20 9.8 91 8.45 8.4 2 6 1013.1 0.2 19.5 26.8 41.2 108.2 101.5 348.9
Portable Rfsnsw20 17 02:00 5.4 86 6 3.2 17 17 1013.1 0 14.4 24.0 33.1 86.6 73.1 248.7
Portable Rfsnsw51 17 02:00 1.5 100 5.38 1.5 7 7 1013.1 0 13.2 24.0 32.2 84.1 68.3 231.2
Portable Rfsnsw55 17 02:00 8.1 70 5.83 3 2 2 1013.1 0 13.9 23.0 31.4 81.9 68.4 232.7
Richmond 17 02:10 10.1 73 6.9 5.5 7 9 1018.6 0 16.1 24.4 35.0 91.5 80.7 276.0
Scone Airport 17 02:10 5.3 99 6.87 5.2 0 0 1018.1 0 16.3 25.7 37.0 96.9 85.4 291.9
Singleton (Defence) 17 02:10 12.1 58 6.22 4.1 17 20 1013.1 0 14.6 22.6 31.3 81.8 69.8 238.1
Smithville 17 02:10 3.8 71 4.46 -1 1013.1 0 11.1 22.0 27.7 71.9 54.3 182.4
Sydney - Observatory Hill 17 02:10 11.9 63 6.67 5.1 22 1018 0.2 15.6 23.5 33.3 87.0 75.9 259.4
Sydney Airport 17 02:10 12.6 72 7.97 7.7 28 32 1018 0.2 18.3 25.4 38.1 99.8 91.9 315.7
Sydney Olympic Park 17 02:10 11.7 68 7.11 6 7 9 1013.1 0 16.5 24.1 34.9 91.3 81.4 278.7
Tamworth Airport 17 02:10 8.1 81 6.74 5 19 20 1017.6 0 15.9 24.7 35.2 92.0 80.6 275.4
Taree Airport 17 02:10 13.2 69 7.92 7.6 20 30 1015.4 0 18.2 25.1 37.5 98.2 90.4 310.3
Temora 17 02:10 -0.7 100 4.62 -0.7 0 0 1021.6 0 11.6 23.7 30.3 78.7 60.1 202.2
Terrey Hills 17 02:10 10.7 72 7.07 5.8 11 15 1013.1 0 16.5 24.3 35.2 92.0 81.9 280.4
Tibooburra Airport 17 02:10 6.8 59 4.51 -0.6 9 11 1021.9 0 11.1 21.6 27.2 70.5 53.3 179.2
Tocal 17 02:10 12.7 64 7.13 6.1 11 13 1013.1 0 16.5 23.9 34.5 90.4 80.6 276.1
Trangie 17 02:10 3.9 94 5.94 3 11 13 1020.5 0 14.3 24.6 33.8 88.3 74.2 252.2
Wagga Wagga 17 02:10 -0.1 100 4.82 -0.1 1021.5 0 12.0 23.9 30.9 80.3 62.4 210.3
Walgett 17 02:10 5.2 87 5.99 3.2 15 17 1019.5 0 14.4 24.3 33.5 87.3 73.6 250.2
West Wyalong 17 02:10 3.4 96 5.87 2.8 7 7 1021.5 0.2 14.2 24.7 33.8 88.2 73.8 250.7
White Cliffs Aws 17 02:10 6.7 67 5.09 1 17 17 1021.9 0 12.4 22.6 29.4 76.5 60.6 205.0
Wilcannia Airport 17 02:10 3.7 81 5.05 0.7 11 11 1022.2 0 12.4 23.3 30.4 79.0 62.5 211.1
Williamtown 17 02:10 13 72 8.17 8.1 20 26 1016.7 0 18.7 25.6 38.6 101.3 94.0 322.9
Yamba 17 02:10 11 64 6.41 4.5 6 7 1013.5 0 15.0 23.2 32.5 84.9 73.2 249.8
Yanco 17 02:00 3 100 5.95 3 0 0 1013.1 0 14.4 24.6 34.0 88.8 74.7 254.0
Young 17 02:10 -1.1 100 4.5 -1.1 7 9 1021.3 0 11.4 23.6 29.9 77.8 58.8 197.4

Last Refresh: 17-Jul-2020 01:51:47

The information presented on this site is sourced from the Bureau of Meteorology.  Copyright in all material sourced from the Bureau of Meteorology resides with the Commonwealth of Australia.